createdAt,value
2022-10-13T00:03:53.556Z,1.00
2022-10-13T00:09:01.892Z,1.00
2022-10-13T00:14:07.797Z,1.00
2022-10-13T00:19:15.192Z,99.90
2022-10-13T00:24:20.026Z,99.90
2022-10-13T00:29:25.408Z,99.90
2022-10-13T00:34:30.637Z,99.90
2022-10-13T00:39:37.459Z,29.10
2022-10-13T00:45:09.693Z,14.00
2022-10-13T00:50:18.072Z,1.00
2022-10-13T00:55:28.616Z,1.00
2022-10-13T01:00:37.033Z,1.00
2022-10-13T01:05:44.247Z,13.40
2022-10-13T01:11:08.649Z,1.00
2022-10-13T01:16:23.904Z,1.00
2022-10-13T01:21:40.915Z,1.00
2022-10-13T01:27:01.123Z,1.00
2022-10-13T01:32:30.851Z,1.00
2022-10-13T01:37:56.279Z,1.00
2022-10-13T01:43:13.722Z,1.00
2022-10-13T01:48:20.292Z,1.00
2022-10-13T01:53:26.602Z,1.00
2022-10-13T01:58:35.227Z,1.00
2022-10-13T02:03:55.154Z,1.00
2022-10-13T02:09:24.143Z,1.00
2022-10-13T02:14:32.983Z,1.00
2022-10-13T02:19:40.387Z,1.00
2022-10-13T02:24:46.868Z,1.00
2022-10-13T02:29:54.177Z,1.00
2022-10-13T02:35:00.160Z,1.00
2022-10-13T02:40:06.894Z,1.00
2022-10-13T02:45:12.976Z,1.00
2022-10-13T02:50:19.381Z,12.90
2022-10-13T02:55:24.345Z,99.90
2022-10-13T03:00:31.274Z,99.90
2022-10-13T03:05:36.803Z,99.90
2022-10-13T03:10:42.225Z,99.90
2022-10-13T03:15:47.830Z,63.10
2022-10-13T03:21:01.398Z,1.00
2022-10-13T03:26:06.640Z,1.00
2022-10-13T03:31:13.333Z,99.90
2022-10-13T03:36:18.772Z,99.90
2022-10-13T03:41:24.354Z,99.90
2022-10-13T03:46:32.370Z,19.90
2022-10-13T03:51:37.322Z,1.00
2022-10-13T03:56:43.397Z,99.90
2022-10-13T04:01:49.147Z,99.90
2022-10-13T04:06:54.215Z,99.90
2022-10-13T04:11:59.375Z,99.90
2022-10-13T04:17:05.506Z,24.00
2022-10-13T04:22:10.408Z,3.00
2022-10-13T04:27:17.083Z,1.00
2022-10-13T04:32:23.050Z,1.00
2022-10-13T04:37:28.416Z,1.00
2022-10-13T04:42:34.657Z,1.00
2022-10-13T04:47:39.950Z,1.00
2022-10-13T04:52:46.131Z,1.00
2022-10-13T04:57:51.334Z,6.70
2022-10-13T05:02:58.343Z,1.00
2022-10-13T05:08:04.151Z,1.00
2022-10-13T05:13:09.455Z,1.00
2022-10-13T05:18:15.019Z,1.00
2022-10-13T05:23:20.439Z,1.00
2022-10-13T05:28:26.143Z,1.00
2022-10-13T05:33:31.459Z,1.00
2022-10-13T05:38:37.091Z,7.10
2022-10-13T05:43:43.505Z,1.00
2022-10-13T05:48:48.366Z,1.00
2022-10-13T05:54:03.029Z,23.30
2022-10-13T05:59:11.766Z,99.90
2022-10-13T06:04:23.170Z,75.90
2022-10-13T06:09:31.373Z,36.00
2022-10-13T06:14:38.492Z,5.10
2022-10-13T06:19:45.590Z,10.30
2022-10-13T06:24:50.848Z,99.90
2022-10-13T06:29:56.306Z,51.80
2022-10-13T06:35:01.341Z,99.90
2022-10-13T06:40:08.767Z,99.90
2022-10-13T06:45:14.841Z,99.90
2022-10-13T06:50:20.671Z,99.90
2022-10-13T06:55:26.533Z,81.70
2022-10-13T07:00:32.511Z,28.60
2022-10-13T07:05:37.451Z,53.70
2022-10-13T07:10:43.477Z,99.90
2022-10-13T07:15:48.325Z,16.10
2022-10-13T07:20:53.787Z,1.00
2022-10-13T07:25:59.106Z,1.00
2022-10-13T07:31:14.297Z,1.00
2022-10-13T07:36:20.842Z,1.00
2022-10-13T07:41:26.891Z,1.00
2022-10-13T07:46:32.456Z,1.00
2022-10-13T07:51:38.141Z,1.00
2022-10-13T07:56:43.606Z,1.00
2022-10-13T08:01:49.155Z,1.00
2022-10-13T08:06:54.611Z,1.00
2022-10-13T08:12:00.834Z,1.00
2022-10-13T08:17:06.867Z,1.00
2022-10-13T08:22:13.304Z,1.00
2022-10-13T08:27:26.646Z,1.00
2022-10-13T08:32:32.050Z,1.00
2022-10-13T08:37:39.025Z,1.00
2022-10-13T08:42:46.464Z,1.00
2022-10-13T08:47:57.634Z,1.00
2022-10-13T08:53:08.857Z,1.00
2022-10-13T08:58:17.275Z,1.00
2022-10-13T09:03:26.277Z,1.00
2022-10-13T09:08:35.058Z,99.90
2022-10-13T09:13:41.644Z,99.90
2022-10-13T09:18:48.028Z,99.90
2022-10-13T09:23:54.016Z,99.90
2022-10-13T09:28:58.822Z,99.90
2022-10-13T09:34:22.843Z,99.90
2022-10-13T09:39:29.340Z,99.90
2022-10-13T09:44:35.302Z,99.90
2022-10-13T09:49:44.279Z,99.90
2022-10-13T09:54:55.848Z,99.90
2022-10-13T10:00:16.417Z,99.90
2022-10-13T10:05:31.456Z,99.90
2022-10-13T10:10:37.896Z,99.90
2022-10-13T10:16:06.742Z,99.90
2022-10-13T10:21:35.657Z,99.90
2022-10-13T10:26:47.062Z,99.90
2022-10-13T10:32:01.073Z,99.90
2022-10-13T10:37:25.127Z,97.70
2022-10-13T10:42:46.297Z,97.90
2022-10-13T10:47:53.342Z,98.70
2022-10-13T10:53:08.428Z,98.60
2022-10-13T10:58:37.751Z,94.80
2022-10-13T11:03:47.412Z,94.70
2022-10-13T11:08:55.636Z,96.80
2022-10-13T11:14:10.374Z,94.00
2022-10-13T11:19:41.885Z,93.50
2022-10-13T11:24:49.497Z,90.40
2022-10-13T11:30:00.643Z,91.20
2022-10-13T11:35:16.371Z,88.70
2022-10-13T11:40:27.951Z,90.90
2022-10-13T11:45:49.234Z,88.00
2022-10-13T11:51:06.627Z,86.80
2022-10-13T11:56:39.716Z,90.30
2022-10-13T12:01:45.861Z,90.10
2022-10-13T12:07:07.911Z,89.20
2022-10-13T12:12:19.078Z,91.20
2022-10-13T12:17:31.192Z,90.60
2022-10-13T12:22:40.290Z,91.40
2022-10-13T12:27:54.662Z,90.90
2022-10-13T12:33:02.771Z,86.90
2022-10-13T12:38:12.731Z,86.10
2022-10-13T12:43:22.110Z,85.80
2022-10-13T12:48:35.941Z,87.30
2022-10-13T12:53:42.221Z,85.60
2022-10-13T12:58:47.986Z,87.10
2022-10-13T13:04:01.026Z,85.80
2022-10-13T13:09:11.483Z,87.20
2022-10-13T13:14:25.605Z,85.10
2022-10-13T13:19:33.714Z,83.00
2022-10-13T13:24:40.688Z,85.80
2022-10-13T13:29:48.349Z,83.70
2022-10-13T13:34:53.867Z,81.20
2022-10-13T13:40:00.135Z,82.70
2022-10-13T13:45:05.408Z,84.80
2022-10-13T13:50:20.184Z,83.20
2022-10-13T13:55:27.729Z,82.60
2022-10-13T14:00:33.459Z,85.30
2022-10-13T14:05:42.098Z,87.00
2022-10-13T14:10:47.659Z,83.90
2022-10-13T14:16:00.875Z,85.90
2022-10-13T14:21:09.538Z,83.70
2022-10-13T14:26:16.038Z,85.70
2022-10-13T14:31:20.900Z,86.00
2022-10-13T14:36:26.867Z,87.00
2022-10-13T14:41:33.433Z,90.00
2022-10-13T14:46:38.589Z,90.60
2022-10-13T14:51:44.705Z,93.30
2022-10-13T14:56:50.892Z,99.90
2022-10-13T15:01:55.895Z,99.90
2022-10-13T15:07:00.951Z,99.90
2022-10-13T15:12:07.736Z,99.90
2022-10-13T15:17:13.991Z,99.90
2022-10-13T15:22:19.720Z,1.00
2022-10-13T15:27:27.298Z,1.00
2022-10-13T15:32:33.473Z,1.00
2022-10-13T15:37:38.628Z,1.00
2022-10-13T15:42:44.165Z,1.00
2022-10-13T15:47:51.022Z,1.00
2022-10-13T15:52:56.075Z,1.00
2022-10-13T15:58:01.297Z,1.00
2022-10-13T16:03:08.090Z,1.00
2022-10-13T16:08:13.749Z,1.00
2022-10-13T16:13:18.713Z,1.00
2022-10-13T16:18:23.877Z,1.00
2022-10-13T16:23:29.423Z,1.00
2022-10-13T16:28:35.231Z,1.00
2022-10-13T16:33:41.516Z,1.00
2022-10-13T16:38:48.214Z,1.00
2022-10-13T16:43:54.032Z,1.00
2022-10-13T16:49:01.349Z,1.00
2022-10-13T16:54:07.410Z,1.00
2022-10-13T16:59:13.790Z,1.00
2022-10-13T17:04:22.160Z,1.00
2022-10-13T17:09:26.023Z,1.00
2022-10-13T17:14:31.853Z,1.00
2022-10-13T17:19:37.993Z,1.00
2022-10-13T17:24:44.910Z,1.00
2022-10-13T17:29:50.481Z,1.00
2022-10-13T17:34:55.774Z,1.00
2022-10-13T17:40:02.091Z,1.00
2022-10-13T17:45:09.501Z,1.00
2022-10-13T17:50:15.312Z,1.00
2022-10-13T17:55:21.140Z,1.00
2022-10-13T18:00:26.290Z,1.00
2022-10-13T18:05:32.366Z,1.00
2022-10-13T18:11:03.613Z,1.00
2022-10-13T18:15:46.228Z,1.00
2022-10-13T18:20:51.599Z,1.00
2022-10-13T18:26:02.228Z,1.00
2022-10-13T18:31:21.532Z,1.00
2022-10-13T18:36:30.502Z,1.00
2022-10-13T18:41:38.080Z,1.00
2022-10-13T18:46:45.692Z,1.00
2022-10-13T18:51:51.922Z,1.00
2022-10-13T18:56:59.136Z,1.00
2022-10-13T19:02:08.238Z,1.00
2022-10-13T19:07:14.472Z,1.00
2022-10-13T19:12:19.988Z,1.00
2022-10-13T19:17:26.095Z,1.00
2022-10-13T19:22:31.871Z,1.00
2022-10-13T19:27:36.919Z,1.00
2022-10-13T19:32:42.279Z,1.00
2022-10-13T19:37:48.454Z,1.00
2022-10-13T19:42:53.952Z,1.00
2022-10-13T19:48:02.055Z,1.00
2022-10-13T19:53:10.359Z,1.00
2022-10-13T19:58:17.162Z,1.00
2022-10-13T20:03:27.629Z,1.00
2022-10-13T20:08:33.601Z,1.00
2022-10-13T20:13:39.613Z,1.00
2022-10-13T20:18:48.279Z,1.00
2022-10-13T20:23:54.509Z,1.00
2022-10-13T20:29:00.618Z,1.00
2022-10-13T20:34:06.461Z,1.00
2022-10-13T20:39:12.934Z,1.00
2022-10-13T20:44:19.012Z,21.70
2022-10-13T20:49:25.392Z,34.10
2022-10-13T20:54:30.548Z,12.80
2022-10-13T20:59:36.085Z,51.30
2022-10-13T21:04:41.979Z,99.90
2022-10-13T21:09:53.582Z,99.90
2022-10-13T21:14:56.997Z,99.90
2022-10-13T21:20:02.463Z,99.90
2022-10-13T21:25:09.046Z,99.90
2022-10-13T21:30:15.332Z,99.90
2022-10-13T21:35:20.583Z,97.00
2022-10-13T21:40:26.151Z,28.20
2022-10-13T21:45:31.718Z,10.30
2022-10-13T21:50:38.302Z,1.00
2022-10-13T21:55:44.300Z,1.00
2022-10-13T22:00:50.299Z,1.00
2022-10-13T22:05:55.398Z,1.00
2022-10-13T22:11:00.556Z,1.00
2022-10-13T22:16:08.370Z,1.00
2022-10-13T22:21:22.782Z,1.00
2022-10-13T22:26:30.797Z,1.00
2022-10-13T22:31:36.532Z,99.90
2022-10-13T22:36:44.821Z,90.70
2022-10-13T22:41:47.967Z,28.50
2022-10-13T22:46:53.489Z,99.90
2022-10-13T22:51:59.092Z,99.90
2022-10-13T22:57:04.043Z,99.90
2022-10-13T23:02:08.989Z,99.90
2022-10-13T23:07:14.454Z,99.90
2022-10-13T23:12:20.731Z,99.90
2022-10-13T23:17:26.385Z,99.90
2022-10-13T23:22:31.759Z,99.90
2022-10-13T23:27:37.319Z,99.90
2022-10-13T23:32:42.578Z,99.90
2022-10-13T23:37:48.452Z,99.90
2022-10-13T23:42:53.394Z,99.90
2022-10-13T23:47:58.838Z,99.90
2022-10-13T23:53:05.446Z,99.90
2022-10-13T23:58:12.263Z,99.90
